Flight Track Log - Related Links

Times and Time Zones

All times are in EDT time to prevent confusion due to time zone crossing. See the AAY891 flight status page for this flight to view local times or setup timezone preferences in your user account.

Time Position Orientation Groundspeed Altitude Reporting Facility
EDT Latitude Longitude Course Direction KTS MPH feet Rate Location/Type
Mon 06:46:37 PM 40.9092 -85.1900 143° Southeast 232 267 4,000  Level Chicago Center
Mon 06:47:38 PM 40.8494 -85.1347 145° Southeast 254 292 5,900 2,244 Climbing Chicago Center
Mon 06:48:40 PM 40.7808 -85.0714 145° Southeast 295 339 8,600 2,710 Climbing Chicago Center
Mon 06:49:42 PM 40.6942 -84.9944 146° Southeast 310 357 11,500 2,516 Climbing Chicago Center
Mon 06:50:44 PM 40.6225 -84.9314 146° Southeast 324 373 13,800 1,645 Climbing Chicago Center
Mon 06:51:00 PM 40.7519 -85.1439 143° Southeast  Level Estimated
Mon 06:51:46 PM 40.5489 -84.8403 137° Southeast 357 411 14,900  Level Chicago Center
Mon 06:52:48 PM 40.4878 -84.7131 122° Southeast 411 473 16,000 1,258 Climbing Chicago Center
Mon 06:53:50 PM 40.4364 -84.5514 113° Southeast 454 522 17,500 1,597 Climbing Chicago Center
Mon 06:54:52 PM 40.3814 -84.3892 114° Southeast 478 550 19,300 1,887 Climbing Chicago Center
Mon 06:55:54 PM 40.3133 -84.1928 114° Southeast 490 564 21,400 1,742 Climbing Chicago Center
Mon 06:56:56 PM 40.2564 -84.0250 114° Southeast 498 573 22,900 1,317 Climbing Chicago Center
Mon 06:57:57 PM 40.1981 -83.8569 114° Southeast 504 580 24,100 1,366 Climbing Chicago Center
Mon 06:58:59 PM 40.1389 -83.6858 114° Southeast 514 592 25,700 1,531 Climbing Chicago Center
Mon 07:00:22 PM 40.0614 -83.4639 114° Southeast 513 590 27,800 1,366 Climbing Indianapolis Center
Mon 07:01:24 PM 39.9861 -83.3050 122° Southeast 512 589 29,000 581 Climbing Indianapolis Center
Mon 07:02:26 PM 39.8600 -83.2161 152° Southeast 509 586 29,000  Level Indianapolis Center
Mon 07:03:27 PM 39.7239 -83.1553 161° South 509 586 29,000  Level Indianapolis Center
Mon 07:05:31 PM 39.4289 -83.0200 161° South 509 586 29,000  Level Indianapolis Center
Mon 07:06:32 PM 39.2994 -82.9603 160° South 499 574 29,000  Level Indianapolis Center
Mon 07:07:34 PM 39.1719 -82.9031 161° South 490 564 29,000  Level Indianapolis Center
Mon 07:08:36 PM 39.0278 -82.9317 189° South 472 543 29,000  Level Indianapolis Center
Mon 07:09:37 PM 38.8981 -82.9703 193° South 472 543 29,000  Level Indianapolis Center
Mon 07:10:39 PM 38.7692 -83.0094 193° South 473 544 29,000  Level Indianapolis Center
Mon 07:11:40 PM 38.6381 -83.0486 193° South 476 548 29,000  Level Indianapolis Center
Mon 07:12:42 PM 38.5089 -83.0867 193° South 474 545 29,000  Level Indianapolis Center
Mon 07:13:44 PM 38.3794 -83.1239 193° South 475 547 29,000  Level Indianapolis Center
Mon 07:14:45 PM 38.2511 -83.1622 193° South 475 547 29,000  Level Indianapolis Center
Mon 07:15:47 PM 38.0997 -83.2069 193° South 475 547 29,000  Level Indianapolis Center
Mon 07:16:48 PM 37.9697 -83.2444 193° South 476 548 29,000  Level Indianapolis Center
Mon 07:17:50 PM 37.8408 -83.2831 193° South 476 548 29,000  Level Indianapolis Center
Mon 07:18:51 PM 37.7106 -83.3189 192° South 476 548 29,000  Level Indianapolis Center
Mon 07:19:53 PM 37.5819 -83.3553 193° South 476 548 29,000  Level Indianapolis Center
Mon 07:20:55 PM 37.4528 -83.3928 193° South 476 548 29,000  Level Indianapolis Center
Mon 07:21:56 PM 37.3031 -83.4350 193° South 476 548 29,000  Level Indianapolis Center
Mon 07:22:58 PM 37.1742 -83.4722 193° South 475 547 29,000  Level Indianapolis Center
Mon 07:23:59 PM 37.0447 -83.5083 193° South 476 548 29,000  Level Indianapolis Center
Mon 07:25:01 PM 36.9153 -83.5464 193° South 476 548 29,000  Level Indianapolis Center
Mon 07:26:03 PM 36.7853 -83.5825 193° South 477 549 29,000  Level Indianapolis Center
Mon 07:27:04 PM 36.6550 -83.6186 193° South 477 549 29,000  Level Indianapolis Center
Mon 07:28:06 PM 36.5058 -83.6597 192° South 477 549 29,000  Level Indianapolis Center
Mon 07:29:07 PM 36.3925 -83.6908 192° South 477 549 29,000  Level Indianapolis Center
Mon 07:30:09 PM 36.2622 -83.7267 193° South 477 549 29,000  Level Indianapolis Center
Mon 07:31:11 PM 36.1067 -83.7706 193° South 476 548 29,000  Level Indianapolis Center
Mon 07:32:05 PM 36.0039 -83.8025 194° South 475 547 29,000  Level Atlanta Center
Mon 07:33:05 PM 35.8744 -83.8364 192° South 475 547 29,000  Level Atlanta Center
Mon 07:34:05 PM 35.7472 -83.8700 192° South 475 547 29,000  Level Atlanta Center
Mon 07:35:05 PM 35.6203 -83.9111 195° South 470 541 29,000  Level Atlanta Center
Mon 07:36:05 PM 35.4972 -83.9725 202° Southwest 476 548 29,000  Level Atlanta Center
Mon 07:37:05 PM 35.3678 -84.0489 206° Southwest 482 555 29,000  Level Atlanta Center
Mon 07:38:05 PM 35.2592 -84.1356 213° Southwest 475 547 29,000  Level Atlanta Center
Mon 07:39:05 PM 35.1464 -84.2217 212° Southwest 475 547 29,000  Level Atlanta Center
Mon 07:40:05 PM 35.0233 -84.2644 196° South 459 528 29,000  Level Atlanta Center
Mon 07:41:05 PM 34.8939 -84.2742 184° South 459 528 29,000  Level Atlanta Center
Mon 07:42:05 PM 34.7644 -84.2917 186° South 459 528 29,000  Level Atlanta Center
Mon 07:43:05 PM 34.6308 -84.3089 186° South 472 543 29,000  Level Atlanta Center
Mon 07:44:05 PM 34.4994 -84.3236 185° South 478 550 29,000  Level Atlanta Center
Mon 07:45:05 PM 34.3678 -84.3433 187° South 483 556 29,000  Level Atlanta Center
Mon 07:46:05 PM 34.2364 -84.3581 185° South 483 556 29,000  Level Atlanta Center
Mon 07:47:05 PM 34.1006 -84.3775 187° South 483 556 29,000  Level Atlanta Center
Mon 07:48:05 PM 33.9692 -84.3944 186° South 483 556 29,000  Level Atlanta Center
Mon 07:49:05 PM 33.8375 -84.4114 186° South 478 550 29,000  Level Atlanta Center
Mon 07:50:05 PM 33.7058 -84.4283 186° South 485 558 29,000  Level Atlanta Center
Mon 07:51:05 PM 33.5869 -84.4378 184° South 479 551 29,000  Level Atlanta Center
Mon 07:52:05 PM 33.4556 -84.4347 179° South 479 551 29,000  Level Atlanta Center
Mon 07:53:05 PM 33.3261 -84.4342 180° South 479 551 29,000  Level Atlanta Center
Mon 07:54:05 PM 33.1925 -84.4286 178° South 479 551 29,000  Level Atlanta Center
Mon 07:55:05 PM 33.0631 -84.4256 179° South 479 551 29,000  Level Atlanta Center
Mon 07:56:05 PM 32.9336 -84.4250 180° South 474 545 29,000  Level Atlanta Center
Mon 07:57:05 PM 32.7897 -84.4194 178° South 474 545 29,000  Level Atlanta Center
Mon 07:58:05 PM 32.6603 -84.4189 180° South 474 545 29,000  Level Atlanta Center
Mon 07:59:05 PM 32.5289 -84.4158 179° South 474 545 29,000  Level Atlanta Center
Mon 08:00:05 PM 32.3972 -84.4128 179° South 474 545 29,000  Level Atlanta Center
Mon 08:01:05 PM 32.2636 -84.4097 179° South 480 552 29,000  Level Atlanta Center
Mon 08:02:28 PM 32.0803 -84.4031 178° South 475 547 29,000  Level Jacksonville Center
Mon 08:03:28 PM 31.9508 -84.4008 179° South 475 547 29,000  Level Jacksonville Center
Mon 08:04:28 PM 31.8172 -84.4011 180° South 475 547 29,000  Level Jacksonville Center
Mon 08:05:28 PM 31.6836 -84.3964 178° South 475 547 29,000  Level Jacksonville Center
Mon 08:06:28 PM 31.5547 -84.3603 167° South 480 552 29,000  Level Jacksonville Center
Mon 08:07:28 PM 31.4256 -84.3242 167° South 486 559 29,000  Level Jacksonville Center
Mon 08:08:28 PM 31.2967 -84.2881 167° South 486 559 29,000  Level Jacksonville Center
Mon 08:09:28 PM 31.1675 -84.2547 168° South 486 559 29,000  Level Jacksonville Center
Mon 08:10:28 PM 31.0406 -84.2214 167° South 481 554 29,000  Level Jacksonville Center
Mon 08:11:28 PM 30.9114 -84.1856 167° South 481 554 29,000  Level Jacksonville Center
Mon 08:12:28 PM 30.7844 -84.1500 166° South 481 554 29,000  Level Jacksonville Center
Mon 08:13:28 PM 30.6511 -84.1144 167° South 481 554 29,000  Level Jacksonville Center
Mon 08:14:28 PM 30.5408 -84.0842 167° South 475 547 29,000  Level Jacksonville Center
Mon 08:15:28 PM 30.4117 -84.0511 168° South 470 541 29,000  Level Jacksonville Center
Mon 08:16:28 PM 30.2803 -84.0158 167° South 470 541 29,000  Level Jacksonville Center
Mon 08:17:28 PM 30.1511 -83.9856 169° South 475 547 29,000 -150 Level Jacksonville Center
Mon 08:18:28 PM 30.0261 -83.9506 166° South 470 541 28,700 -450 Descending Jacksonville Center
Mon 08:19:28 PM 29.8969 -83.9156 167° South 470 541 28,100 -650 Descending Jacksonville Center
Mon 08:20:28 PM 29.7597 -83.8567 160° South 470 541 27,400 -550 Descending Jacksonville Center
Mon 08:21:28 PM 29.6433 -83.7839 151° Southeast 475 547 27,000 -200 Descending Jacksonville Center
Mon 08:22:28 PM 29.5269 -83.7089 151° Southeast 475 547 27,000  Level Jacksonville Center
Mon 08:23:28 PM 29.4106 -83.6339 151° Southeast 480 552 27,000 -300 Level Jacksonville Center
Mon 08:24:28 PM 29.2939 -83.5569 150° Southeast 480 552 26,400 -900 Descending Jacksonville Center
Mon 08:25:28 PM 29.1794 -83.4825 150° Southeast 480 552 25,200 -1,400 Descending Jacksonville Center
Mon 08:26:28 PM 29.0631 -83.4106 152° Southeast 480 552 23,600 -1,650 Descending Jacksonville Center
Mon 08:27:28 PM 28.9547 -83.3411 151° Southeast 470 541 21,900 -1,700 Descending Jacksonville Center
Mon 08:28:28 PM 28.8486 -83.2742 151° Southeast 458 527 20,200 -1,700 Descending Jacksonville Center
Mon 08:29:28 PM 28.7483 -83.2100 151° Southeast 438 504 18,500 -1,850 Descending Jacksonville Center
Mon 08:30:28 PM 28.6547 -83.1506 151° Southeast 409 471 16,500 -2,000 Descending Jacksonville Center
Mon 08:31:52 PM 28.5333 -83.0667 149° Southeast 370 426 13,700 -2,083 Descending Tampa TRACON
Mon 08:32:52 PM 28.4500 -83.0167 152° Southeast 359 413 11,500 -2,158 Descending Tampa TRACON
Mon 08:33:46 PM 28.3667 -82.9667 152° Southeast 349 402 9,600 -1,444 Descending Tampa TRACON
Mon 08:34:40 PM 28.3000 -82.9167 147° Southeast 299 344 8,900 -1,368 Descending Tampa TRACON
Mon 08:35:40 PM 28.2333 -82.8667 147° Southeast 276 318 7,000 -1,600 Descending Tampa TRACON
Mon 08:36:40 PM 28.1667 -82.8333 156° South 268 308 5,700 -1,250 Descending Tampa TRACON
Mon 08:37:40 PM 28.1167 -82.7833 139° Southeast 212 244 4,500 -1,227 Descending Tampa TRACON
Mon 08:38:52 PM 28.0667 -82.7500 150° Southeast 170 196 3,000 -1,091 Descending Tampa TRACON
Mon 08:39:52 PM 28.0333 -82.7167 139° Southeast 133 153 2,100 -842 Descending Tampa TRACON
Mon 08:40:46 PM 28.0000 -82.7000 156° South 142 163 1,400 -737 Descending Tampa TRACON
Mon 08:41:46 PM 27.9667 -82.7000 180° South 141 162 700 -700 Descending Tampa TRACON

Login

Don't have an account? Register now (free) for customized features, flight alerts, and more!